Ringtown, Pennsylvania
Current Conditions -  °F | °C
As of 5:15 AM on Friday 19 Dec 2014 (Local Time) from KHZL Reporting Station
Overcast Overcast  
Wind Chill: 23°   Ceiling: 400
Heat Index: 30°   Visibility: 7mi
Dew Point: 28°   Wind: 8mph
Humidity: 93%   Direction: 280°W
Pressure: 29.98"   Gusts: 16mph
Location:  40.86°N, 76.23°W
Report Text: KHZL 191015Z AUTO 28007G14KT 7SM OVC004 M01/M02 A2998 RMK AO2
Loading
Personal Weather Stations






























Interactive Weather Map New forecast layout! Learn more

10-Day Weather Forecast

Advertisements
Track Severe Weather on mobile